Aktualne dane pomiarowe

Uwaga, wersja testowa! Automatyczne pobieranie danych za pomocą narzędzi lub skryptów to umożliwiających jest zabronione.

Dane meteo z obszaru Polski uzyskane na podstawie depesz SYNOP pobieranych co godzinę z NWS. Najedź myszką na symbol przedstawiony w tabeli, aby uzyskać informacje co do jego znaczenia. Prosimy pamiętać, że to testowa wersja strony, która jeszcze nie jest ukończona. Stworzono również jest krótki FAQ dotyczący korzystania z tej podstrony Anomalie temperatury w chwili obecnej odniesione są do okresu referencyjnego 1951-2016. Okres ten będzie później zmieniony na 1981-2010. Kliknij ikonę aby pobrać plik CSV. Kliknij ikonę aby wygenerować mapę synoptyczną dla danego terminu.

Wybierz Datę:    

        

Ostrołęka (12285)

Dane terminowe dla wybranej stacji. Kliknij datę, aby otrzymać dane z tego terminu dla wszystkich stacji.

TemperaturaZachmurzenieWiatrCiśnienieOpadyPogoda
 Data t td wb tx tn tg rh  Nt Nl Cl Cm Ch ws wd g1 g2 wx mslp ppp ch 24h 12h t ww ww w1 w2  
2019-07-07 23:00:00 13.7 10.4 11.5--- 8020.0--4----1007.1 995.8 0.5---------
2019-07-07 22:00:00 14.0 10.0 11.4--- 7720.0--4----1007.0 995.7 0.6---------
2019-07-07 21:00:00 14.1 9.5 11.2--- 7420.0--3----1006.9 995.6 1.4---------
2019-07-07 20:00:00 14.4 8.9 11.0--- 7020.0--4----1006.6 995.3 1.3---------
2019-07-07 19:00:00 15.4 9.6 11.8--- 6820.0--0----1006.3 995.1 1.4---------
2019-07-07 18:00:00 16.5 8.4 11.7 19.9 15.4- 5920.0--0----1005.3 994.2 0.3---------
2019-07-07 17:00:00 17.9 8.2 12.3--- 5320.0--4wx---1005.0 993.9 0.0---------
2019-07-07 16:00:00 18.5 7.6 12.3--- 4920.0--6wx---1004.8 993.7 -0.3---------
2019-07-07 15:00:00 18.9 7.2 12.3--- 4720.0--5wx---1004.9 993.9 0.2---------
2019-07-07 14:00:00 18.5 7.5 12.2--- 4920.0--5wx---1005.1 994.0 0.9---------
2019-07-07 13:00:00 18.0 7.7 12.1--- 5120.0--4wx---1005.0 993.9 1.1---------
2019-07-07 12:00:00 18.7 7.0 12.1--- 4720.0--4----1004.7 993.6 0.9- 0.06------
2019-07-07 11:00:00 19.4 7.3 12.6--- 4520.0--5wx---1004.2 993.1 0.7---------
2019-07-07 10:00:00 19.2 7.6 12.6--- 4720.0--4wx---1003.8 992.8 0.4---------
2019-07-07 09:00:00 18.2 8.1 12.4--- 5220.0--4wx---1003.8 992.8 0.5---------
2019-07-07 08:00:00 17.4 9.3 12.6--- 5920.0--5wx---1003.5 992.4 0.5---------
2019-07-07 07:00:00 16.3 10.1 12.5--- 6720.0--3----1003.5 992.4 0.3---------
2019-07-07 06:00:00 15.8 10.8 12.6 17.7 14.6 14 7220.0--4wx---1003.4 992.2 0.0 0.0 0.012----- 0.0
2019-07-07 05:00:00 15.5 14.0 14.4--- 9116.0--2----1003.1 992.0 -0.6---------
2019-07-07 04:00:00 14.9 13.7 14.0--- 9316.0--2----1003.3 992.1 -0.7---------
2019-07-07 03:00:00 14.9 13.4 13.8--- 9118.0--3----1003.4 992.2 -1.3---------
2019-07-07 02:00:00 14.6 13.6 13.9--- 9410.0--3wx---1003.8 992.5 -1.2---------
2019-07-07 01:00:00 14.8 13.8 14.1--- 9412.0--0----1004.1 992.9 -0.9---------
2019-07-07 00:00:00 14.7 13.9 14.1--- 9511.0--3wx---1004.8 993.5 -0.6- 0.06------
2019-07-06 23:00:00 14.9 14.0 14.2--- 9412.0--3----1004.9 993.7 -0.8---------
2019-07-06 22:00:00 14.8 14.0 14.2--- 9511.0--3----1005.0 993.8 -0.7---wx-----
2019-07-06 21:00:00 14.9 13.8 14.1--- 9316.0--3wx---1005.4 994.2 -0.7---wx-----
2019-07-06 20:00:00 15.8 13.2 14.0--- 8520.0--3wx---1005.6 994.4 -0.8---wx-----
2019-07-06 19:00:00 16.9 12.5 14.0--- 7520.0--2----1005.6 994.4 -1.4---------
2019-07-06 18:00:00 17.7 12.2 14.2 20.3 13.9- 7020.0--3----1006.0 994.8 -1.3- 0.012------
2019-07-06 17:00:00 18.6 12.0 14.4--- 6520.0--3----1006.4 995.3 -1.5---------
2019-07-06 16:00:00 18.1 11.8 14.1--- 6720.0--2----1006.9 995.8 -1.1---------
2019-07-06 15:00:00 18.5 10.9 13.8--- 6120.0--2----1007.3 996.1 -0.9---------
2019-07-06 14:00:00 18.3 10.5 13.5--- 6020.0--3----1007.9 996.8 -0.5---------
2019-07-06 13:00:00 18.7 10.3 13.6--- 5820.0--3----1008.0 996.9 -0.6---------
2019-07-06 12:00:00 19.1 9.8 13.5--- 5520.0--4wx---1008.1 997.0 -0.7- 0.06------
2019-07-06 11:00:00 20.2 9.2 13.8--- 4920.0--4wx---1008.4 997.3 -0.9---------
2019-07-06 10:00:00 19.7 9.3 13.6--- 5120.0--4wx---1008.6 997.5 -0.9---------
2019-07-06 09:00:00 18.8 8.6 12.9--- 5220.0--5wx---1008.9 997.8 -0.8---------
2019-07-06 08:00:00 17.1 7.9 11.8--- 5520.0--4wx---1009.4 998.2 -0.3---------
2019-07-06 07:00:00 15.6 7.9 11.1--- 6020.0--4----1009.7 998.5 -0.2---------
2019-07-06 06:00:00 13.9 7.6 10.1 18.2 5.3 1 6620.0--3----1009.9 998.6 0.0 2.4 0.012----- 0.0
2019-07-06 05:00:00 12.0 6.0 8.5--- 6720.0--2----1010.0 998.6 -0.2---------
2019-07-06 04:00:00 8.2 5.0 6.2--- 8020.0--2wx---1010.2 998.6 -0.4---------
2019-07-06 03:00:00 5.7 3.2 4.1--- 8420.0--1wx---1010.4 998.7 -0.4---------
2019-07-06 02:00:00 5.4 3.3 4.1--- 8620.0--1wx---1010.5 998.8 0.0---------
2019-07-06 01:00:00 6.0 4.3 4.9--- 8920.0--2wx---1010.7 999.1 0.2---------
2019-07-06 00:00:00 6.6 5.5 5.8--- 9320.0--1wx---1010.8 999.1 0.4- 0.06------
1.3 ms

 

Print Friendly, PDF & Email